»·PEaware :: N256Z KMMH-KLAS

N256Z :: KMMH-KLAS

FLIGHT INFORMATION

Flight Status: Arrived
Operator: Privately registered:
United States
More flights under this callsign
Pilot: Gregory A. (9731)
Aircraft: PIPER PA-46-500TP MALIBU MERIDIAN
(P46T)
More flights by this aircraft type
Origin: KMMH Mammoth Yosemite
United States
Destination: KLAS McCarran Intl
United States
More flights between these airports :: More routes between these airports
Route: +NIKOL1 NIKOL OAL J92 BTY FUZZY8
File this flight plan on PilotEdge
Remarks:
Altitude:
(Current/Filed)
270ft
Speed:
(Current/Filed)
260kts
Departed: 14-Apr-19 10:58 AM
Arrived: 14-Apr-19 12:04 PM
Distance/Time
Traveled:
199nm/1:06
Distance/Time
To Go:
Arrived

Flight Plot

Page will automatically refresh every two minutes.

Flight plan parsing failed; only flown route is shown


Map Options




Map Legend


Flown Route
Filed Route
Departure Airport
Arrival Airport
Navaid (VOR, NDB)
Fix

Horizontal Profiles

Position Reports

Time Latitude Longitude Heading Altitude Ground
Speed
14-Apr-19 10:33 37.626726 -118.842747 19 7132ft 0kts
14-Apr-19 10:34 37.626726 -118.842747 19 7132ft 0kts
14-Apr-19 10:35 37.626726 -118.842747 19 7132ft 0kts
14-Apr-19 10:36 37.626726 -118.842747 19 7132ft 0kts
14-Apr-19 10:37 37.626726 -118.842747 19 7132ft 0kts
14-Apr-19 10:38 37.626726 -118.842747 19 7132ft 0kts
14-Apr-19 10:39 37.626725 -118.842747 19 7132ft 0kts
14-Apr-19 10:40 37.626725 -118.842747 19 7132ft 0kts
14-Apr-19 10:41 37.626725 -118.842747 19 7132ft 0kts
14-Apr-19 10:42 37.626726 -118.842747 19 7132ft 0kts
14-Apr-19 10:43 37.626728 -118.842746 19 7132ft 0kts
14-Apr-19 10:44 37.626730 -118.842745 19 7132ft 0kts
14-Apr-19 10:45 37.626732 -118.842744 19 7132ft 0kts
14-Apr-19 10:46 37.626734 -118.842743 19 7132ft 0kts
14-Apr-19 10:47 37.626737 -118.842742 19 7132ft 0kts
14-Apr-19 10:48 37.626739 -118.842741 19 7132ft 0kts
14-Apr-19 10:49 37.626741 -118.842740 19 7132ft 0kts
14-Apr-19 10:50 37.626756 -118.842733 19 7132ft 0kts
14-Apr-19 10:51 37.626758 -118.842732 19 7132ft 0kts
14-Apr-19 10:52 37.626845 -118.842731 336 7132ft 3kts
14-Apr-19 10:53 37.627088 -118.846820 290 7132ft 14kts
14-Apr-19 10:54 37.627544 -118.849909 195 7132ft 0kts
14-Apr-19 10:55 37.627542 -118.849910 195 7132ft 0kts
14-Apr-19 10:56 37.627068 -118.849775 107 7132ft 0kts
14-Apr-19 10:57 37.620760 -118.827233 108 7387ft 145kts
14-Apr-19 10:58 37.632658 -118.772521 67 9525ft 174kts
14-Apr-19 10:59 37.651115 -118.717171 68 11920ft 174kts
14-Apr-19 11:00 37.673179 -118.659005 66 14324ft 192kts
14-Apr-19 11:01 37.693948 -118.594468 67 16732ft 202kts
14-Apr-19 11:02 37.729792 -118.549352 345 19144ft 188kts
14-Apr-19 11:04 37.776368 -118.575308 323 21566ft 183kts
14-Apr-19 11:05 37.821333 -118.606428 325 23939ft 185kts
14-Apr-19 11:06 37.869892 -118.633210 329 25827ft 197kts
14-Apr-19 11:07 37.921899 -118.658103 329 27308ft 206kts
14-Apr-19 11:08 37.983421 -118.666341 29 27473ft 274kts
14-Apr-19 11:09 37.998408 -118.571660 99 27470ft 295kts
14-Apr-19 11:10 37.991227 -118.467412 92 27466ft 299kts
14-Apr-19 11:11 37.991589 -118.362032 88 27466ft 299kts
14-Apr-19 11:12 37.994585 -118.256184 87 27458ft 300kts
14-Apr-19 11:13 37.998085 -118.150678 87 27458ft 300kts
14-Apr-19 11:14 38.001466 -118.045181 87 27460ft 300kts
14-Apr-19 11:15 38.004436 -117.939312 88 27462ft 300kts
14-Apr-19 11:16 38.006301 -117.833755 89 27464ft 300kts
14-Apr-19 11:17 37.971600 -117.744548 140 27469ft 286kts
14-Apr-19 11:18 37.911032 -117.680693 149 27469ft 282kts
14-Apr-19 11:19 37.847152 -117.622659 151 27470ft 281kts
14-Apr-19 11:20 37.782726 -117.566464 152 27470ft 281kts
14-Apr-19 11:21 37.717790 -117.510523 152 27471ft 282kts
14-Apr-19 11:22 37.652924 -117.454926 152 27470ft 282kts
14-Apr-19 11:23 37.587919 -117.399383 152 27473ft 282kts
14-Apr-19 11:24 37.522542 -117.343641 152 27472ft 283kts
14-Apr-19 11:24 37.468107 -117.297327 152 27471ft 284kts
14-Apr-19 11:26 37.391743 -117.232527 152 27470ft 284kts
14-Apr-19 11:27 37.325711 -117.176644 152 27181ft 285kts
14-Apr-19 11:28 37.262399 -117.123576 152 26011ft 267kts
14-Apr-19 11:29 37.201367 -117.073046 151 24811ft 259kts
14-Apr-19 11:29 37.151927 -117.032088 151 24215ft 253kts
14-Apr-19 11:31 37.082478 -116.974284 150 23073ft 259kts
14-Apr-19 11:31 37.032794 -116.932782 150 22479ft 257kts
14-Apr-19 11:32 36.973612 -116.883691 150 21879ft 252kts
14-Apr-19 11:34 36.904912 -116.827306 150 21180ft 255kts
14-Apr-19 11:34 36.855869 -116.787539 151 20599ft 246kts
14-Apr-19 11:36 36.793417 -116.727295 134 19670ft 250kts
14-Apr-19 11:36 36.755948 -116.673268 133 19151ft 242kts
14-Apr-19 11:37 36.711927 -116.610610 133 18648ft 239kts
14-Apr-19 11:38 36.667413 -116.547507 133 18152ft 243kts
14-Apr-19 11:39 36.623683 -116.485905 134 17707ft 233kts
14-Apr-19 11:40 36.580296 -116.425224 134 17409ft 237kts
14-Apr-19 11:41 36.536120 -116.363471 134 17109ft 236kts
14-Apr-19 11:42 36.492793 -116.304258 135 16806ft 230kts
14-Apr-19 11:43 36.450597 -116.244152 131 16508ft 232kts
14-Apr-19 11:44 36.408693 -116.183146 133 16439ft 233kts
14-Apr-19 11:45 36.365980 -116.122966 133 16434ft 231kts
14-Apr-19 11:46 36.323007 -116.063124 133 16436ft 233kts
14-Apr-19 11:47 36.280247 -116.004075 134 16434ft 228kts
14-Apr-19 11:48 36.237233 -115.945555 135 16437ft 232kts
14-Apr-19 11:49 36.198362 -115.880184 117 16437ft 241kts
14-Apr-19 11:50 36.170227 -115.806436 116 16367ft 240kts
14-Apr-19 11:51 36.141502 -115.730894 116 15392ft 237kts
14-Apr-19 11:52 36.113262 -115.657996 116 14402ft 235kts
14-Apr-19 11:53 36.085854 -115.588195 116 13396ft 219kts
14-Apr-19 11:54 36.059212 -115.521533 117 12397ft 214kts
14-Apr-19 11:55 36.039391 -115.452990 97 11393ft 211kts
14-Apr-19 11:56 36.033542 -115.381923 92 10515ft 202kts
14-Apr-19 11:57 36.030210 -115.314632 93 9931ft 190kts
14-Apr-19 11:58 36.027158 -115.262014 92 8933ft 112kts
14-Apr-19 11:59 36.025028 -115.225801 88 6127ft 109kts
14-Apr-19 12:00 36.039751 -115.196862 35 2874ft 86kts
14-Apr-19 12:01 36.061285 -115.179993 31 2364ft 90kts
14-Apr-19 12:02 36.083345 -115.165639 21 2119ft 61kts
14-Apr-19 12:03 36.089336 -115.163282 292 2119ft 0kts

Navigation Log

Ident Type
Flight plan parsing failed, navigation log unavailable